Rogers, Minnesota
Current Conditions -  °F | °C
As of 6:53 PM on Friday 19 Dec 2014 (Local Time) from KMIC Reporting Station
Haze Haze  
Wind Chill: 22°   Ceiling: 1200
Heat Index: 30°   Visibility: 5mi
Dew Point: 25°   Wind: 8mph
Humidity: 82%   Direction: 140°SE
Pressure: 30.18"   Gusts: NA
Location:  45.19°N, 93.55°W
Report Text: KMIC 200053Z 14007KT 5SM HZ OVC012 M01/M04 A3018 RMK AO2 SLP233 T10111039
Loading
Personal Weather Stations






























Interactive Weather Map New forecast layout! Learn more

10-Day Weather Forecast

Advertisements
Track Severe Weather on mobile